createdAt,value
2023-05-25T00:01:35.420Z,99940.34
2023-05-25T00:04:06.254Z,99927.88
2023-05-25T00:06:41.387Z,99934.28
2023-05-25T00:09:21.409Z,99927.53
2023-05-25T00:11:55.221Z,99943.84
2023-05-25T00:14:26.220Z,99946.53
2023-05-25T00:16:56.506Z,99934.28
2023-05-25T00:19:34.758Z,99944.53
2023-05-25T00:22:03.285Z,99954.13
2023-05-25T00:24:35.131Z,99953.94
2023-05-25T00:27:11.561Z,99947.75
2023-05-25T00:29:57.287Z,99946.53
2023-05-25T00:32:30.696Z,99944.88
2023-05-25T00:35:01.421Z,99947.41
2023-05-25T00:37:31.564Z,99935.25
2023-05-25T00:40:02.353Z,99944.84
2023-05-25T00:42:33.515Z,99948.75
2023-05-25T00:45:04.386Z,99953.06
2023-05-25T00:47:38.085Z,99964.50
2023-05-25T00:50:10.203Z,99958.22
2023-05-25T00:52:39.862Z,99966.88
2023-05-25T00:55:11.696Z,99954.25
2023-05-25T00:57:44.040Z,99950.16
2023-05-25T01:00:25.341Z,99955.53
2023-05-25T01:02:57.004Z,99958.78
2023-05-25T01:05:30.430Z,99942.50
2023-05-25T01:08:05.874Z,99952.19
2023-05-25T01:10:37.397Z,99963.44
2023-05-25T01:13:11.208Z,99952.97
2023-05-25T01:15:43.308Z,99944.25
2023-05-25T01:18:17.655Z,99957.09
2023-05-25T01:21:02.308Z,99953.34
2023-05-25T01:23:34.920Z,99954.69
2023-05-25T01:26:08.231Z,99958.41
2023-05-25T01:28:43.567Z,99946.22
2023-05-25T01:31:12.275Z,99962.34
2023-05-25T01:33:41.614Z,99961.25
2023-05-25T01:36:26.888Z,99955.56
2023-05-25T01:39:06.542Z,99962.63
2023-05-25T01:41:44.656Z,99962.75
2023-05-25T01:44:22.137Z,99960.06
2023-05-25T01:46:59.692Z,99955.81
2023-05-25T01:49:42.365Z,99961.03
2023-05-25T01:52:23.888Z,99960.06
2023-05-25T01:54:58.739Z,99960.00
2023-05-25T01:57:35.536Z,99961.97
2023-05-25T02:00:10.255Z,99959.38
2023-05-25T02:02:46.091Z,99963.06
2023-05-25T02:05:17.782Z,99952.13
2023-05-25T02:07:53.510Z,99936.84
2023-05-25T02:10:30.712Z,99953.13
2023-05-25T02:13:03.837Z,99945.31
2023-05-25T02:15:37.303Z,99964.66
2023-05-25T02:18:18.087Z,99965.13
2023-05-25T02:20:47.959Z,99964.50
2023-05-25T02:23:19.076Z,99961.97
2023-05-25T02:25:55.976Z,99963.09
2023-05-25T02:28:28.707Z,99967.88
2023-05-25T02:31:03.115Z,99971.03
2023-05-25T02:33:31.477Z,99966.31
2023-05-25T02:36:03.150Z,99973.28
2023-05-25T02:38:35.674Z,99978.34
2023-05-25T02:41:05.340Z,99981.97
2023-05-25T02:43:39.957Z,99979.53
2023-05-25T02:46:14.367Z,99980.38
2023-05-25T02:48:44.597Z,99988.22
2023-05-25T02:51:16.353Z,99988.44
2023-05-25T02:53:49.327Z,99997.31
2023-05-25T02:56:18.808Z,99991.31
2023-05-25T02:58:49.648Z,99987.41
2023-05-25T03:01:56.373Z,99998.66
2023-05-25T03:04:27.394Z,100003.38
2023-05-25T03:07:02.852Z,99996.94
2023-05-25T03:09:32.676Z,100000.78
2023-05-25T03:12:02.725Z,100003.16
2023-05-25T03:14:36.242Z,100001.47
2023-05-25T03:17:09.172Z,99996.63
2023-05-25T03:19:49.784Z,100006.00
2023-05-25T03:22:19.652Z,100008.84
2023-05-25T03:24:52.016Z,99991.31
2023-05-25T03:27:24.017Z,99995.63
2023-05-25T03:29:57.361Z,99991.94
2023-05-25T03:32:38.623Z,100009.53
2023-05-25T03:35:16.368Z,100005.94
2023-05-25T03:37:50.612Z,100001.47
2023-05-25T03:40:21.062Z,100009.69
2023-05-25T03:42:52.805Z,100015.53
2023-05-25T03:45:24.979Z,100026.84
2023-05-25T03:47:56.038Z,100019.81
2023-05-25T03:50:28.404Z,100021.00
2023-05-25T03:53:03.655Z,100008.75
2023-05-25T03:55:34.734Z,100031.66
2023-05-25T03:58:04.517Z,100033.13
2023-05-25T04:00:33.588Z,100029.53
2023-05-25T04:03:09.162Z,100018.53
2023-05-25T04:05:42.586Z,100023.44
2023-05-25T04:08:10.968Z,100010.66
2023-05-25T04:10:46.466Z,100020.59
2023-05-25T04:13:23.827Z,100032.97
2023-05-25T04:15:53.239Z,100014.69
2023-05-25T04:18:31.264Z,100024.16
2023-05-25T04:21:05.183Z,100022.13
2023-05-25T04:23:34.748Z,100024.28
2023-05-25T04:26:06.126Z,100020.56
2023-05-25T04:28:37.552Z,100005.50
2023-05-25T04:31:23.122Z,100013.13
2023-05-25T04:34:22.857Z,100019.25
2023-05-25T04:37:09.192Z,100010.19
2023-05-25T04:39:39.763Z,100025.06
2023-05-25T04:42:20.128Z,100024.91
2023-05-25T04:44:53.281Z,100031.16
2023-05-25T04:47:34.773Z,100027.97
2023-05-25T04:50:04.299Z,100028.84
2023-05-25T04:52:33.706Z,100024.75
2023-05-25T04:55:02.916Z,100035.88
2023-05-25T04:57:42.252Z,100046.69
2023-05-25T05:00:15.457Z,100036.91
2023-05-25T05:02:49.236Z,100032.13
2023-05-25T05:05:22.440Z,100044.41
2023-05-25T05:07:51.948Z,100044.53
2023-05-25T05:10:23.971Z,100053.47
2023-05-25T05:13:02.171Z,100056.59
2023-05-25T05:15:32.565Z,100041.31
2023-05-25T05:18:02.359Z,100042.34
2023-05-25T05:20:30.599Z,100051.97
2023-05-25T05:23:01.160Z,100052.13
2023-05-25T05:25:32.874Z,100045.94
2023-05-25T05:28:04.293Z,100042.72
2023-05-25T05:30:50.540Z,100042.81
2023-05-25T05:33:20.216Z,100046.22
2023-05-25T05:35:58.136Z,100048.94
2023-05-25T05:38:26.940Z,100046.59
2023-05-25T05:41:04.303Z,100061.41
2023-05-25T05:43:36.366Z,100059.75
2023-05-25T05:46:06.960Z,100049.41
2023-05-25T05:48:36.533Z,100062.72
2023-05-25T05:51:10.051Z,100059.06
2023-05-25T05:53:39.864Z,100056.44
2023-05-25T05:56:20.571Z,100058.47
2023-05-25T05:58:56.940Z,100069.94
2023-05-25T06:01:27.553Z,100069.41
2023-05-25T06:04:04.163Z,100067.13
2023-05-25T06:06:34.919Z,100077.41
2023-05-25T06:09:06.778Z,100072.22
2023-05-25T06:11:39.890Z,100083.16
2023-05-25T06:14:16.461Z,100077.41
2023-05-25T06:16:55.678Z,100081.66
2023-05-25T06:19:28.838Z,100072.03
2023-05-25T06:22:01.314Z,100074.03
2023-05-25T06:24:31.325Z,100086.50
2023-05-25T06:27:00.564Z,100091.56
2023-05-25T06:29:36.854Z,100081.84
2023-05-25T06:32:10.998Z,100097.88
2023-05-25T06:34:43.510Z,100096.97
2023-05-25T06:37:15.724Z,100094.53
2023-05-25T06:39:48.738Z,100080.63
2023-05-25T06:42:22.684Z,100079.81
2023-05-25T06:45:03.696Z,100078.38
2023-05-25T06:47:35.364Z,100080.34
2023-05-25T06:50:06.453Z,100091.25
2023-05-25T06:52:38.040Z,100087.44
2023-05-25T06:55:08.531Z,100097.50
2023-05-25T06:57:42.705Z,100095.53
2023-05-25T07:00:26.932Z,100095.69
2023-05-25T07:02:58.854Z,100084.41
2023-05-25T07:05:32.652Z,100090.81
2023-05-25T07:08:03.221Z,100086.09
2023-05-25T07:10:32.655Z,100074.81
2023-05-25T07:13:05.815Z,100081.53
2023-05-25T07:15:36.051Z,100075.50
2023-05-25T07:18:06.891Z,100071.81
2023-05-25T07:20:36.792Z,100089.97
2023-05-25T07:23:07.765Z,100079.03
2023-05-25T07:25:46.781Z,100084.56
2023-05-25T07:28:18.567Z,100084.41
2023-05-25T07:30:52.944Z,100089.41
2023-05-25T07:33:22.414Z,100081.16
2023-05-25T07:35:53.169Z,100093.78
2023-05-25T07:38:24.166Z,100090.66
2023-05-25T07:41:09.923Z,100084.06
2023-05-25T07:43:39.645Z,100089.94
2023-05-25T07:46:25.518Z,100096.16
2023-05-25T07:49:04.328Z,100093.81
2023-05-25T07:51:38.302Z,100085.25
2023-05-25T07:54:15.300Z,100100.84
2023-05-25T07:56:43.757Z,100107.78
2023-05-25T07:59:20.838Z,100097.31
2023-05-25T08:02:00.230Z,100098.69
2023-05-25T08:04:34.042Z,100091.59
2023-05-25T08:07:02.830Z,100095.22
2023-05-25T08:09:34.121Z,100100.88
2023-05-25T08:12:30.145Z,100087.06
2023-05-25T08:14:55.230Z,100097.31
2023-05-25T08:17:27.504Z,100096.25
2023-05-25T08:19:58.430Z,100113.28
2023-05-25T08:22:27.558Z,100106.00
2023-05-25T08:25:08.613Z,100098.69
2023-05-25T08:27:39.438Z,100095.50
2023-05-25T08:30:11.174Z,100100.91
2023-05-25T08:32:46.117Z,100106.72
2023-05-25T08:35:28.279Z,100096.50
2023-05-25T08:37:58.534Z,100103.25
2023-05-25T08:40:29.937Z,100099.22
2023-05-25T08:43:02.479Z,100099.94
2023-05-25T08:45:36.749Z,100096.44
2023-05-25T08:48:39.925Z,100098.63
2023-05-25T08:51:19.723Z,100101.16
2023-05-25T08:53:51.167Z,100095.03
2023-05-25T08:56:24.541Z,100107.16
2023-05-25T08:59:00.488Z,100103.94
2023-05-25T09:01:33.465Z,100110.66
2023-05-25T09:04:14.125Z,100100.47
2023-05-25T09:06:54.227Z,100095.84
2023-05-25T09:09:37.161Z,100098.81
2023-05-25T09:12:07.329Z,100102.22
2023-05-25T09:14:44.764Z,100101.47
2023-05-25T09:17:24.551Z,100104.44
2023-05-25T09:19:59.776Z,100106.03
2023-05-25T09:22:29.131Z,100103.19
2023-05-25T09:24:58.658Z,100104.47
2023-05-25T09:27:27.529Z,100104.66
2023-05-25T09:30:00.128Z,100112.00
2023-05-25T09:32:31.455Z,100107.69
2023-05-25T09:35:09.958Z,100107.78
2023-05-25T09:37:41.997Z,100120.47
2023-05-25T09:40:17.408Z,100123.91
2023-05-25T09:42:46.810Z,100104.59
2023-05-25T09:45:23.786Z,100096.50
2023-05-25T09:47:56.099Z,100115.25
2023-05-25T09:50:28.948Z,100108.91
2023-05-25T09:53:01.163Z,100114.88
2023-05-25T09:55:40.409Z,100118.50
2023-05-25T09:58:19.881Z,100108.25
2023-05-25T10:01:01.044Z,100100.97
2023-05-25T10:03:34.066Z,100101.81
2023-05-25T10:06:05.774Z,100093.59
2023-05-25T10:08:42.094Z,100103.66
2023-05-25T10:11:19.084Z,100095.25
2023-05-25T10:13:55.908Z,100092.34
2023-05-25T10:16:29.418Z,100099.09
2023-05-25T10:19:05.686Z,100101.22
2023-05-25T10:21:39.273Z,100090.28
2023-05-25T10:24:24.532Z,100089.06
2023-05-25T10:27:14.676Z,100085.78
2023-05-25T10:29:58.291Z,100107.81
2023-05-25T10:32:34.022Z,100098.28
2023-05-25T10:35:05.434Z,100095.38
2023-05-25T10:37:36.109Z,100080.16
2023-05-25T10:40:10.122Z,100074.34
2023-05-25T10:42:41.487Z,100076.47
2023-05-25T10:45:19.273Z,100073.19
2023-05-25T10:47:48.833Z,100066.75
2023-05-25T10:50:27.467Z,100066.59
2023-05-25T10:53:03.931Z,100068.22
2023-05-25T10:55:44.146Z,100057.22
2023-05-25T10:58:22.865Z,100067.56
2023-05-25T11:01:05.785Z,100079.53
2023-05-25T11:03:57.396Z,100071.56
2023-05-25T11:07:02.554Z,100064.91
2023-05-25T11:09:38.839Z,100053.00
2023-05-25T11:12:16.889Z,100047.06
2023-05-25T11:14:47.912Z,100044.97
2023-05-25T11:17:23.419Z,100046.91
2023-05-25T11:20:00.502Z,100046.53
2023-05-25T11:22:37.461Z,100037.78
2023-05-25T11:25:40.098Z,100038.47
2023-05-25T11:28:13.847Z,100031.94
2023-05-25T11:30:51.225Z,100024.56
2023-05-25T11:33:29.800Z,100031.03
2023-05-25T11:36:00.356Z,100031.59
2023-05-25T11:38:56.306Z,100024.91
2023-05-25T11:41:44.091Z,100012.22
2023-05-25T11:44:20.505Z,100017.78
2023-05-25T11:46:52.321Z,100015.78
2023-05-25T11:49:24.960Z,100012.94
2023-05-25T11:52:01.805Z,100014.03
2023-05-25T11:54:33.464Z,99995.22
2023-05-25T11:57:11.856Z,99999.03
2023-05-25T11:59:42.207Z,100008.66
2023-05-25T12:02:15.429Z,100013.69
2023-05-25T12:04:56.923Z,100002.56
2023-05-25T12:07:36.398Z,100004.06
2023-05-25T12:10:13.448Z,100002.38
2023-05-25T12:13:00.685Z,99987.50
2023-05-25T12:15:31.273Z,99988.88
2023-05-25T12:18:02.062Z,99991.63
2023-05-25T12:20:31.387Z,99983.97
2023-05-25T12:23:11.533Z,99987.53
2023-05-25T12:25:50.422Z,99978.91
2023-05-25T12:28:28.608Z,99982.13
2023-05-25T12:31:02.948Z,99987.91
2023-05-25T12:33:32.313Z,99975.91
2023-05-25T12:36:03.187Z,99978.25
2023-05-25T12:38:34.464Z,99983.72
2023-05-25T12:41:19.343Z,99965.63
2023-05-25T12:43:55.950Z,99960.91
2023-05-25T12:46:34.371Z,99982.09
2023-05-25T12:49:03.730Z,99987.50
2023-05-25T12:51:39.623Z,99972.66
2023-05-25T12:54:08.976Z,99979.75
2023-05-25T12:56:57.927Z,99976.72
2023-05-25T12:59:40.173Z,99971.38
2023-05-25T13:02:12.112Z,99968.16
2023-05-25T13:04:44.690Z,99959.00
2023-05-25T13:07:20.462Z,99957.56
2023-05-25T13:09:49.206Z,99953.50
2023-05-25T13:12:21.607Z,99941.97
2023-05-25T13:14:56.234Z,99939.69
2023-05-25T13:17:33.475Z,99942.78
2023-05-25T13:20:11.064Z,99940.69
2023-05-25T13:22:47.114Z,99941.63
2023-05-25T13:25:19.470Z,99939.56
2023-05-25T13:27:53.172Z,99945.03
2023-05-25T13:30:30.824Z,99945.16
2023-05-25T13:33:07.761Z,99933.56
2023-05-25T13:35:52.207Z,99938.00
2023-05-25T13:38:23.817Z,99935.38
2023-05-25T13:40:52.510Z,99937.81
2023-05-25T13:43:26.551Z,99934.59
2023-05-25T13:46:03.855Z,99919.16
2023-05-25T13:48:35.612Z,99932.84
2023-05-25T13:51:07.316Z,99928.16
2023-05-25T13:53:36.881Z,99923.28
2023-05-25T13:56:08.153Z,99925.91
2023-05-25T13:58:40.508Z,99934.28
2023-05-25T14:01:18.087Z,99928.06
2023-05-25T14:03:51.885Z,99927.31
2023-05-25T14:06:33.867Z,99932.06
2023-05-25T14:09:05.688Z,99943.06
2023-05-25T14:11:36.519Z,99933.81
2023-05-25T14:14:13.670Z,99922.91
2023-05-25T14:16:45.761Z,99937.84
2023-05-25T14:19:18.798Z,99928.50
2023-05-25T14:22:03.707Z,99928.91
2023-05-25T14:24:42.718Z,99907.16
2023-05-25T14:27:10.849Z,99908.34
2023-05-25T14:29:41.309Z,99924.81
2023-05-25T14:32:21.037Z,99928.38
2023-05-25T14:34:55.722Z,99914.41
2023-05-25T14:37:26.367Z,99918.25
2023-05-25T14:40:00.692Z,99920.28
2023-05-25T14:42:32.641Z,99920.50
2023-05-25T14:45:01.809Z,99909.81
2023-05-25T14:47:36.430Z,99910.16
2023-05-25T14:50:08.631Z,99914.50
2023-05-25T14:52:37.568Z,99909.06
2023-05-25T14:55:07.802Z,99924.91
2023-05-25T14:57:38.615Z,99907.59
2023-05-25T15:00:09.266Z,99906.81
2023-05-25T15:02:40.294Z,99896.78
2023-05-25T15:05:15.485Z,99902.19
2023-05-25T15:07:54.920Z,99890.16
2023-05-25T15:10:26.578Z,99885.41
2023-05-25T15:12:55.334Z,99894.13
2023-05-25T15:15:25.999Z,99880.72
2023-05-25T15:17:55.730Z,99893.09
2023-05-25T15:20:32.693Z,99891.63
2023-05-25T15:23:09.274Z,99897.38
2023-05-25T15:25:39.638Z,99887.31
2023-05-25T15:28:11.522Z,99894.09
2023-05-25T15:30:42.722Z,99882.16
2023-05-25T15:33:29.923Z,99885.66
2023-05-25T15:36:14.672Z,99880.78
2023-05-25T15:38:44.488Z,99881.56
2023-05-25T15:41:17.738Z,99880.94
2023-05-25T15:44:00.839Z,99883.59
2023-05-25T15:46:33.195Z,99888.75
2023-05-25T15:49:10.933Z,99876.81
2023-05-25T15:51:45.209Z,99886.56
2023-05-25T15:54:19.076Z,99885.88
2023-05-25T15:56:49.770Z,99887.97
2023-05-25T15:59:23.898Z,99890.44
2023-05-25T16:01:52.496Z,99878.84
2023-05-25T16:04:29.089Z,99871.84
2023-05-25T16:07:00.705Z,99879.63
2023-05-25T16:09:39.014Z,99871.25
2023-05-25T16:12:18.350Z,99880.69
2023-05-25T16:14:48.911Z,99859.47
2023-05-25T16:17:18.830Z,99866.50
2023-05-25T16:20:00.255Z,99856.50
2023-05-25T16:22:28.549Z,99862.81
2023-05-25T16:25:04.850Z,99866.25
2023-05-25T16:27:36.140Z,99854.94
2023-05-25T16:30:05.000Z,99860.00
2023-05-25T16:32:39.030Z,99856.53
2023-05-25T16:35:23.512Z,99861.72
2023-05-25T16:37:54.808Z,99846.47
2023-05-25T16:40:23.929Z,99857.50
2023-05-25T16:43:03.447Z,99857.78
2023-05-25T16:45:34.680Z,99856.91
2023-05-25T16:48:12.108Z,99858.81
2023-05-25T16:50:54.297Z,99856.34
2023-05-25T16:53:27.419Z,99850.56
2023-05-25T16:56:01.994Z,99853.22
2023-05-25T16:58:40.814Z,99853.06
2023-05-25T17:01:11.489Z,99839.78
2023-05-25T17:03:44.980Z,99857.06
2023-05-25T17:06:19.773Z,99853.03
2023-05-25T17:08:58.659Z,99857.97
2023-05-25T17:11:32.730Z,99855.53
2023-05-25T17:14:07.006Z,99848.13
2023-05-25T17:16:37.924Z,99867.03
2023-05-25T17:19:18.766Z,99853.34
2023-05-25T17:22:01.542Z,99849.91
2023-05-25T17:24:43.610Z,99862.03
2023-05-25T17:27:27.341Z,99851.38
2023-05-25T17:29:58.429Z,99848.59
2023-05-25T17:32:38.484Z,99852.88
2023-05-25T17:35:08.810Z,99868.91
2023-05-25T17:37:52.066Z,99860.34
2023-05-25T17:40:21.571Z,99861.59
2023-05-25T17:42:50.054Z,99867.72
2023-05-25T17:45:22.074Z,99853.16
2023-05-25T17:47:56.493Z,99867.03
2023-05-25T17:50:28.838Z,99860.63
2023-05-25T17:53:10.814Z,99849.50
2023-05-25T17:55:40.347Z,99861.50
2023-05-25T17:58:20.819Z,99863.88
2023-05-25T18:00:52.261Z,99868.69
2023-05-25T18:03:30.652Z,99864.84
2023-05-25T18:06:02.570Z,99854.66
2023-05-25T18:08:34.002Z,99877.09
2023-05-25T18:11:04.139Z,99875.44
2023-05-25T18:13:38.802Z,99874.66
2023-05-25T18:16:18.503Z,99872.59
2023-05-25T18:18:48.698Z,99871.75
2023-05-25T18:21:20.233Z,99881.34
2023-05-25T18:23:52.317Z,99874.28
2023-05-25T18:26:24.246Z,99872.81
2023-05-25T18:28:54.300Z,99880.16
2023-05-25T18:31:25.837Z,99882.91
2023-05-25T18:33:57.498Z,99886.28
2023-05-25T18:36:27.154Z,99882.28
2023-05-25T18:39:00.142Z,99878.09
2023-05-25T18:41:30.374Z,99872.91
2023-05-25T18:44:09.271Z,99890.50
2023-05-25T18:46:41.160Z,99896.75
2023-05-25T18:49:12.403Z,99891.53
2023-05-25T18:51:43.010Z,99889.00
2023-05-25T18:54:24.696Z,99891.72
2023-05-25T18:56:56.529Z,99901.53
2023-05-25T18:59:32.992Z,99898.59
2023-05-25T19:02:02.734Z,99897.38
2023-05-25T19:04:33.941Z,99903.84
2023-05-25T19:07:03.011Z,99904.25
2023-05-25T19:09:42.684Z,99899.88
2023-05-25T19:12:16.151Z,99902.81
2023-05-25T19:14:51.661Z,99907.63
2023-05-25T19:17:24.071Z,99911.78
2023-05-25T19:19:58.622Z,99918.28
2023-05-25T19:22:31.374Z,99917.84
2023-05-25T19:25:06.134Z,99914.91
2023-05-25T19:27:35.720Z,99911.13
2023-05-25T19:30:08.714Z,99922.00
2023-05-25T19:32:44.288Z,99918.66
2023-05-25T19:35:21.450Z,99921.16
2023-05-25T19:37:51.150Z,99925.75
2023-05-25T19:40:37.797Z,99934.94
2023-05-25T19:43:07.546Z,99930.53
2023-05-25T19:45:44.392Z,99931.78
2023-05-25T19:48:27.202Z,99944.50
2023-05-25T19:50:58.269Z,99931.09
2023-05-25T19:53:28.431Z,99931.91
2023-05-25T19:56:07.269Z,99930.50
2023-05-25T19:58:35.916Z,99931.53
2023-05-25T20:01:09.940Z,99929.81
2023-05-25T20:03:43.568Z,99930.44
2023-05-25T20:06:18.403Z,99946.09
2023-05-25T20:08:49.688Z,99945.38
2023-05-25T20:11:33.012Z,99950.00
2023-05-25T20:14:01.885Z,99950.00
2023-05-25T20:16:41.032Z,99952.09
2023-05-25T20:19:12.762Z,99944.06
2023-05-25T20:21:44.701Z,99946.53
2023-05-25T20:24:16.218Z,99953.91
2023-05-25T20:26:48.416Z,99952.47
2023-05-25T20:29:20.478Z,99960.47
2023-05-25T20:31:50.242Z,99959.06
2023-05-25T20:34:21.043Z,99967.59
2023-05-25T20:36:58.975Z,99972.63
2023-05-25T20:39:27.819Z,99973.38
2023-05-25T20:42:06.923Z,99978.66
2023-05-25T20:44:36.443Z,99974.38
2023-05-25T20:47:04.854Z,99985.00
2023-05-25T20:49:36.212Z,99986.25
2023-05-25T20:52:13.845Z,99993.63
2023-05-25T20:54:44.865Z,99998.75
2023-05-25T20:57:18.977Z,99989.50
2023-05-25T20:59:53.868Z,99990.97
2023-05-25T21:05:09.095Z,100008.41
2023-05-25T21:07:39.097Z,100003.88
2023-05-25T21:10:14.774Z,100011.88
2023-05-25T21:12:51.865Z,100018.44
2023-05-25T21:15:25.432Z,100018.59
2023-05-25T21:18:11.106Z,100023.06
2023-05-25T21:20:42.105Z,100022.13
2023-05-25T21:23:16.523Z,100024.59
2023-05-25T21:25:49.417Z,100022.81
2023-05-25T21:28:30.870Z,100025.38
2023-05-25T21:31:01.960Z,100023.31
2023-05-25T21:33:35.682Z,100023.13
2023-05-25T21:36:10.838Z,100018.41
2023-05-25T21:38:41.329Z,100031.81
2023-05-25T21:41:11.343Z,100013.53
2023-05-25T21:43:44.060Z,100027.81
2023-05-25T21:46:20.507Z,100038.06
2023-05-25T21:48:51.028Z,100042.13
2023-05-25T21:51:22.738Z,100034.28
2023-05-25T21:53:51.043Z,100035.69
2023-05-25T21:56:27.568Z,100033.53
2023-05-25T21:59:10.300Z,100036.19
2023-05-25T22:01:44.141Z,100034.97
2023-05-25T22:04:14.100Z,100035.16
2023-05-25T22:06:43.158Z,100042.16
2023-05-25T22:09:19.300Z,100046.69
2023-05-25T22:11:56.612Z,100047.97
2023-05-25T22:14:28.500Z,100048.59
2023-05-25T22:16:59.497Z,100053.09
2023-05-25T22:19:27.965Z,100056.75
2023-05-25T22:21:58.450Z,100051.22
2023-05-25T22:24:29.384Z,100053.22
2023-05-25T22:27:02.970Z,100071.06
2023-05-25T22:29:36.448Z,100069.53
2023-05-25T22:32:10.906Z,100072.47
2023-05-25T22:34:43.341Z,100057.81
2023-05-25T22:37:17.528Z,100059.75
2023-05-25T22:39:48.887Z,100068.38
2023-05-25T22:42:17.447Z,100068.25
2023-05-25T22:44:52.225Z,100057.53
2023-05-25T22:47:22.124Z,100071.53
2023-05-25T22:49:53.999Z,100057.53
2023-05-25T22:52:34.394Z,100071.44
2023-05-25T22:55:05.093Z,100072.59
2023-05-25T22:57:36.848Z,100068.16
2023-05-25T23:00:26.478Z,100069.25
2023-05-25T23:03:07.224Z,100064.50
2023-05-25T23:05:49.830Z,100063.69
2023-05-25T23:08:31.195Z,100068.56
2023-05-25T23:11:07.573Z,100072.03
2023-05-25T23:13:39.355Z,100067.66
2023-05-25T23:16:40.900Z,100062.44
2023-05-25T23:19:15.183Z,100062.59
2023-05-25T23:21:49.002Z,100058.72
2023-05-25T23:24:20.762Z,100059.06
2023-05-25T23:26:50.759Z,100048.72
2023-05-25T23:29:22.664Z,100053.06
2023-05-25T23:31:55.701Z,100053.34
2023-05-25T23:34:29.085Z,100048.66
2023-05-25T23:37:09.926Z,100043.03
2023-05-25T23:39:41.966Z,100043.69
2023-05-25T23:42:15.538Z,100053.72
2023-05-25T23:44:49.255Z,100050.25
2023-05-25T23:47:35.516Z,100057.63
2023-05-25T23:50:04.268Z,100057.56
2023-05-25T23:52:40.738Z,100059.63
2023-05-25T23:55:10.037Z,100063.16
2023-05-25T23:57:44.924Z,100059.00
